Aviation Digital Data Service (ADDS)

Output produced by METARs form (0754 UTC 18 February 2019)
found at http://www.aviationweather.gov/metar/data/
 
METAR text: NVSS 180700Z 01014KT 9999 FEW018 BKN020 OVC110 27/26 Q0999 RMK NIL
Conditions at: NVSS (PEKOA ARPT/SANTO, VU) observed 0700 UTC 18 February 2019
Temperature: 27.0°C (81°F)
Dewpoint: 26.0°C (79°F) [RH = 94%]
Pressure (altimeter): 29.50 inches Hg (999.0 mb)
Winds: from the N (10 degrees) at 16 MPH (14 knots; 7.2 m/s)
Visibility: 6 or more miles (10+ km)
Ceiling: 2000 feet AGL
Clouds: few clouds at 1800 feet AGL
broken clouds at 2000 feet AGL
overcast cloud deck at 11000 feet AGL
Weather: no significant weather observed at this time

METAR text: NVSS 180600Z 01016KT 9999 FEW018 SCT020 OVC110 27/26 Q0998 RMK NIL
Conditions at: NVSS (PEKOA ARPT/SANTO, VU) observed 0600 UTC 18 February 2019
Temperature: 27.0°C (81°F)
Dewpoint: 26.0°C (79°F) [RH = 94%]
Pressure (altimeter): 29.47 inches Hg (998.0 mb)
Winds: from the N (10 degrees) at 18 MPH (16 knots; 8.2 m/s)
Visibility: 6 or more miles (10+ km)
Ceiling: 11000 feet AGL
Clouds: few clouds at 1800 feet AGL
scattered clouds at 2000 feet AGL
overcast cloud deck at 11000 feet AGL
Weather: no significant weather observed at this time

METAR text: NVSS 180500Z 03017KT 9999 BKN020 28/24 Q0998 RMK NIL
Conditions at: NVSS (PEKOA ARPT/SANTO, VU) observed 0500 UTC 18 February 2019
Temperature: 28.0°C (82°F)
Dewpoint: 24.0°C (75°F) [RH = 79%]
Pressure (altimeter): 29.47 inches Hg (998.0 mb)
Winds: from the NNE (30 degrees) at 20 MPH (17 knots; 8.7 m/s)
Visibility: 6 or more miles (10+ km)
Ceiling: 2000 feet AGL
Clouds: broken clouds at 2000 feet AGL
Weather: no significant weather observed at this time

METAR text: NVSS 180400Z 08016KT 9999 BKN020 28/26 Q0998 RMK NIL
Conditions at: NVSS (PEKOA ARPT/SANTO, VU) observed 0400 UTC 18 February 2019
Temperature: 28.0°C (82°F)
Dewpoint: 26.0°C (79°F) [RH = 89%]
Pressure (altimeter): 29.47 inches Hg (998.0 mb)
Winds: from the E (80 degrees) at 18 MPH (16 knots; 8.2 m/s)
Visibility: 6 or more miles (10+ km)
Ceiling: 2000 feet AGL
Clouds: broken clouds at 2000 feet AGL
Weather: no significant weather observed at this time

METAR text: NVSS 180300Z 01019KT 9999 BKN020 28/26 Q0998 RMK NIL
Conditions at: NVSS (PEKOA ARPT/SANTO, VU) observed 0300 UTC 18 February 2019
Temperature: 28.0°C (82°F)
Dewpoint: 26.0°C (79°F) [RH = 89%]
Pressure (altimeter): 29.47 inches Hg (998.0 mb)
Winds: from the N (10 degrees) at 22 MPH (19 knots; 9.8 m/s)
Visibility: 6 or more miles (10+ km)
Ceiling: 2000 feet AGL
Clouds: broken clouds at 2000 feet AGL
Weather: no significant weather observed at this time

METAR text: NVSS 180200Z 01017KT 9999 BKN020 OVC110 27/26 Q0998 RMK NIL
Conditions at: NVSS (PEKOA ARPT/SANTO, VU) observed 0200 UTC 18 February 2019
Temperature: 27.0°C (81°F)
Dewpoint: 26.0°C (79°F) [RH = 94%]
Pressure (altimeter): 29.47 inches Hg (998.0 mb)
Winds: from the N (10 degrees) at 20 MPH (17 knots; 8.7 m/s)
Visibility: 6 or more miles (10+ km)
Ceiling: 2000 feet AGL
Clouds: broken clouds at 2000 feet AGL
overcast cloud deck at 11000 feet AGL
Weather: no significant weather observed at this time

METAR text: NVSS 180100Z 09017KT 9999 BKN020 OVC110 28/26 Q0992 RMK NIL
Conditions at: NVSS (PEKOA ARPT/SANTO, VU) observed 0100 UTC 18 February 2019
Temperature: 28.0°C (82°F)
Dewpoint: 26.0°C (79°F) [RH = 89%]
Pressure (altimeter): 29.29 inches Hg (992.0 mb)
Winds: from the E (90 degrees) at 20 MPH (17 knots; 8.7 m/s)
Visibility: 6 or more miles (10+ km)
Ceiling: 2000 feet AGL
Clouds: broken clouds at 2000 feet AGL
overcast cloud deck at 11000 feet AGL
Weather: no significant weather observed at this time

METAR text: NVSS 172300Z 01015KT 9999 FEW018 BKN020 OVC110 27/26 Q0995 RMK RERA
Conditions at: NVSS (PEKOA ARPT/SANTO, VU) observed 2300 UTC 17 February 2019
Temperature: 27.0°C (81°F)
Dewpoint: 26.0°C (79°F) [RH = 94%]
Pressure (altimeter): 29.38 inches Hg (995.0 mb)
Winds: from the N (10 degrees) at 17 MPH (15 knots; 7.7 m/s)
Visibility: 6 or more miles (10+ km)
Ceiling: 2000 feet AGL
Clouds: few clouds at 1800 feet AGL
broken clouds at 2000 feet AGL
overcast cloud deck at 11000 feet AGL
Weather: no significant weather observed at this time

METAR text: NVSS 172200Z 01017KT 9999 SCT018 BKN020 OVC110 27/26 Q9994 RMK NIL
Conditions at: NVSS (PEKOA ARPT/SANTO, VU) observed 2200 UTC 17 February 2019
Temperature: 27.0°C (81°F)
Dewpoint: 26.0°C (79°F) [RH = 94%]
Pressure (altimeter): missing
Winds: from the N (10 degrees) at 20 MPH (17 knots; 8.7 m/s)
Visibility: 6 or more miles (10+ km)
Ceiling: 2000 feet AGL
Clouds: scattered clouds at 1800 feet AGL
broken clouds at 2000 feet AGL
overcast cloud deck at 11000 feet AGL
Weather: no significant weather observed at this time

METAR text: NVSS 172100Z 07017KT 9999 SCT018 BKN020 OVC110 27/27 Q0998 RMK NIL
Conditions at: NVSS (PEKOA ARPT/SANTO, VU) observed 2100 UTC 17 February 2019
Temperature: 27.0°C (81°F)
Dewpoint: 27.0°C (81°F) [RH = 100%]
Pressure (altimeter): 29.47 inches Hg (998.0 mb)
Winds: from the ENE (70 degrees) at 20 MPH (17 knots; 8.7 m/s)
Visibility: 6 or more miles (10+ km)
Ceiling: 2000 feet AGL
Clouds: scattered clouds at 1800 feet AGL
broken clouds at 2000 feet AGL
overcast cloud deck at 11000 feet AGL
Weather: no significant weather observed at this time

METAR text: NVSS 172000Z AUTO 01020G34KT //// // NCD 26/26 Q0998 RMK NIL
Conditions at: NVSS (PEKOA ARPT/SANTO, VU) observed 2000 UTC 17 February 2019
Temperature: 26.0°C (79°F)
Dewpoint: 26.0°C (79°F) [RH = 100%]
Pressure (altimeter): 29.47 inches Hg (998.0 mb)
Winds: from the N (10 degrees) at 23 MPH (20 knots; 10.3 m/s)
gusting to 39 MPH (34 knots; 17.5 m/s)
Visibility: missing
Ceiling: at least 12,000 feet AGL
Clouds: sky clear below 12,000 feet AGL
Weather: no significant weather observed at this time

METAR text: NVSS 171900Z AUTO 01022G39KT //// // NCD 25/25 Q0997 RMK NIL
Conditions at: NVSS (PEKOA ARPT/SANTO, VU) observed 1900 UTC 17 February 2019
Temperature: 25.0°C (77°F)
Dewpoint: 25.0°C (77°F) [RH = 100%]
Pressure (altimeter): 29.44 inches Hg (997.0 mb)
Winds: from the N (10 degrees) at 25 MPH (22 knots; 11.3 m/s)
gusting to 45 MPH (39 knots; 20.1 m/s)
Visibility: missing
Ceiling: at least 12,000 feet AGL
Clouds: sky clear below 12,000 feet AGL
Weather: no significant weather observed at this time

METAR text: NVSS 171800Z 01015KT 9999 -SHRA SCT018 BKN020 OVC110 26/26 Q0996 RMK NIL
Conditions at: NVSS (PEKOA ARPT/SANTO, VU) observed 1800 UTC 17 February 2019
Temperature: 26.0°C (79°F)
Dewpoint: 26.0°C (79°F) [RH = 100%]
Pressure (altimeter): 29.41 inches Hg (996.0 mb)
Winds: from the N (10 degrees) at 17 MPH (15 knots; 7.7 m/s)
Visibility: 6 or more miles (10+ km)
Ceiling: 2000 feet AGL
Clouds: scattered clouds at 1800 feet AGL
broken clouds at 2000 feet AGL
overcast cloud deck at 11000 feet AGL
Weather: -SHRA  (light rain showers)

METAR text: NVSS 171700Z AUTO 01017G27KT //// // NCD 26/26 Q0996 RMK NIL
Conditions at: NVSS (PEKOA ARPT/SANTO, VU) observed 1700 UTC 17 February 2019
Temperature: 26.0°C (79°F)
Dewpoint: 26.0°C (79°F) [RH = 100%]
Pressure (altimeter): 29.41 inches Hg (996.0 mb)
Winds: from the N (10 degrees) at 20 MPH (17 knots; 8.7 m/s)
gusting to 31 MPH (27 knots; 13.9 m/s)
Visibility: missing
Ceiling: at least 12,000 feet AGL
Clouds: sky clear below 12,000 feet AGL
Weather: no significant weather observed at this time

METAR text: NVSS 171600Z 36024KT 9999 SHRA FEW018 BKN020 OVC110 26/26 Q0995 RMK NIL INTER 1600/1800 -8000 TSRA SCT008 BKN018 FEW022CB OVC038
Conditions at: NVSS (PEKOA ARPT/SANTO, VU) observed 1600 UTC 17 February 2019
Temperature: 26.0°C (79°F)
Dewpoint: 26.0°C (79°F) [RH = 100%]
Pressure (altimeter): 29.38 inches Hg (995.0 mb)
Winds: from the N (360 degrees) at 28 MPH (24 knots; 12.3 m/s)
Visibility: 6 or more miles (10+ km)
Ceiling: 2000 feet AGL
Clouds: few clouds at 1800 feet AGL
broken clouds at 2000 feet AGL
overcast cloud deck at 11000 feet AGL
Weather: SHRA  (rain showers)

METAR text: NVSS 171500Z 36020KT 9999 -SHRA FEW018 BKN020 OVC110 26/26 Q0996 RMK NIL
Conditions at: NVSS (PEKOA ARPT/SANTO, VU) observed 1500 UTC 17 February 2019
Temperature: 26.0°C (79°F)
Dewpoint: 26.0°C (79°F) [RH = 100%]
Pressure (altimeter): 29.41 inches Hg (996.0 mb)
Winds: from the N (360 degrees) at 23 MPH (20 knots; 10.3 m/s)
Visibility: 6 or more miles (10+ km)
Ceiling: 2000 feet AGL
Clouds: few clouds at 1800 feet AGL
broken clouds at 2000 feet AGL
overcast cloud deck at 11000 feet AGL
Weather: -SHRA  (light rain showers)

METAR text: NVSS 171400Z 01018KT 9999 -SHRA FEW018 BKN020 OVC110 26/25 Q0996 RMK NIL INTER 1400/1600 8000 +RA SCT008 BKN018 FEW022CB OVC038
Conditions at: NVSS (PEKOA ARPT/SANTO, VU) observed 1400 UTC 17 February 2019
Temperature: 26.0°C (79°F)
Dewpoint: 25.0°C (77°F) [RH = 94%]
Pressure (altimeter): 29.41 inches Hg (996.0 mb)
Winds: from the N (10 degrees) at 21 MPH (18 knots; 9.3 m/s)
Visibility: 6 or more miles (10+ km)
Ceiling: 2000 feet AGL
Clouds: few clouds at 1800 feet AGL
broken clouds at 2000 feet AGL
overcast cloud deck at 11000 feet AGL
Weather: -SHRA  (light rain showers)

METAR text: NVSS 171300Z 01019KT 9999 SHRA BKN018 OVC110 27/27 Q0996 RMK NIL INTER 1300/1500 8000 +RA SCT008 BKN018 FEW022CB OVC038
Conditions at: NVSS (PEKOA ARPT/SANTO, VU) observed 1300 UTC 17 February 2019
Temperature: 27.0°C (81°F)
Dewpoint: 27.0°C (81°F) [RH = 100%]
Pressure (altimeter): 29.41 inches Hg (996.0 mb)
Winds: from the N (10 degrees) at 22 MPH (19 knots; 9.8 m/s)
Visibility: 6 or more miles (10+ km)
Ceiling: 1800 feet AGL
Clouds: broken clouds at 1800 feet AGL
overcast cloud deck at 11000 feet AGL
Weather: SHRA  (rain showers)

METAR text: NVSS 171200Z 02019KT 9999 -SHRA BKN018 OVC110 27/27 Q0997 RMK NIL
Conditions at: NVSS (PEKOA ARPT/SANTO, VU) observed 1200 UTC 17 February 2019
Temperature: 27.0°C (81°F)
Dewpoint: 27.0°C (81°F) [RH = 100%]
Pressure (altimeter): 29.44 inches Hg (997.0 mb)
Winds: from the NNE (20 degrees) at 22 MPH (19 knots; 9.8 m/s)
Visibility: 6 or more miles (10+ km)
Ceiling: 1800 feet AGL
Clouds: broken clouds at 1800 feet AGL
overcast cloud deck at 11000 feet AGL
Weather: -SHRA  (light rain showers)

METAR text: NVSS 171100Z 02021KT 9999 BKN020 27/26 Q0996 RMK NIL
Conditions at: NVSS (PEKOA ARPT/SANTO, VU) observed 1100 UTC 17 February 2019
Temperature: 27.0°C (81°F)
Dewpoint: 26.0°C (79°F) [RH = 94%]
Pressure (altimeter): 29.41 inches Hg (996.0 mb)
Winds: from the NNE (20 degrees) at 24 MPH (21 knots; 10.8 m/s)
Visibility: 6 or more miles (10+ km)
Ceiling: 2000 feet AGL
Clouds: broken clouds at 2000 feet AGL
Weather: no significant weather observed at this time

METAR text: NVSS 171000Z 01019KT 9999 BKN020 OVC110 25/25 Q0996 RMK NIL
Conditions at: NVSS (PEKOA ARPT/SANTO, VU) observed 1000 UTC 17 February 2019
Temperature: 25.0°C (77°F)
Dewpoint: 25.0°C (77°F) [RH = 100%]
Pressure (altimeter): 29.41 inches Hg (996.0 mb)
Winds: from the N (10 degrees) at 22 MPH (19 knots; 9.8 m/s)
Visibility: 6 or more miles (10+ km)
Ceiling: 2000 feet AGL
Clouds: broken clouds at 2000 feet AGL
overcast cloud deck at 11000 feet AGL
Weather: no significant weather observed at this time

METAR text: NVSS 170900Z 01016KT 9999 BKN020 26/26 Q0996 RMK RESH
Conditions at: NVSS (PEKOA ARPT/SANTO, VU) observed 0900 UTC 17 February 2019
Temperature: 26.0°C (79°F)
Dewpoint: 26.0°C (79°F) [RH = 100%]
Pressure (altimeter): 29.41 inches Hg (996.0 mb)
Winds: from the N (10 degrees) at 18 MPH (16 knots; 8.2 m/s)
Visibility: 6 or more miles (10+ km)
Ceiling: 2000 feet AGL
Clouds: broken clouds at 2000 feet AGL
Weather: no significant weather observed at this time

METAR text: NVSS 170800Z 02017KT 9999 -SHRA FEW018 BKN020 26/25 Q0995 RMK NIL INTER 0800/1000 8000 +RA SCT008 BKN018 OVC040
Conditions at: NVSS (PEKOA ARPT/SANTO, VU) observed 0800 UTC 17 February 2019
Temperature: 26.0°C (79°F)
Dewpoint: 25.0°C (77°F) [RH = 94%]
Pressure (altimeter): 29.38 inches Hg (995.0 mb)
Winds: from the NNE (20 degrees) at 20 MPH (17 knots; 8.7 m/s)
Visibility: 6 or more miles (10+ km)
Ceiling: 2000 feet AGL
Clouds: few clouds at 1800 feet AGL
broken clouds at 2000 feet AGL
Weather: -SHRA  (light rain showers)

METAR text: NVSS 170727Z 03011G21KT 1000 +RA FEW008 BKN018 OVC040 28/24 Q0995 RMK POOR VIS INTER 0727/0827 0500 +RA SCT008 BKN018 OVC040
Conditions at: NVSS (PEKOA ARPT/SANTO, VU) observed 0727 UTC 17 February 2019
Temperature: 28.0°C (82°F)
Dewpoint: 24.0°C (75°F) [RH = 79%]
Pressure (altimeter): 29.38 inches Hg (995.0 mb)
Winds: from the NNE (30 degrees) at 13 MPH (11 knots; 5.7 m/s)
gusting to 24 MPH (21 knots; 10.8 m/s)
Visibility: 0.62 miles (1.00 km)
Ceiling: 1800 feet AGL
Clouds: few clouds at 800 feet AGL
broken clouds at 1800 feet AGL
overcast cloud deck at 4000 feet AGL
Weather: +RA  (heavy rain)

METAR text: NVSS 170700Z 03019KT 9999 FEW018 BKN020 OVC110 27/26 Q0995 RMK NIL
Conditions at: NVSS (PEKOA ARPT/SANTO, VU) observed 0700 UTC 17 February 2019
Temperature: 27.0°C (81°F)
Dewpoint: 26.0°C (79°F) [RH = 94%]
Pressure (altimeter): 29.38 inches Hg (995.0 mb)
Winds: from the NNE (30 degrees) at 22 MPH (19 knots; 9.8 m/s)
Visibility: 6 or more miles (10+ km)
Ceiling: 2000 feet AGL
Clouds: few clouds at 1800 feet AGL
broken clouds at 2000 feet AGL
overcast cloud deck at 11000 feet AGL
Weather: no significant weather observed at this time

METAR text: NVSS 170600Z 03021KT 9999 SCT018 BKN020 OVC110 27/26 Q0994 RMK NIL
Conditions at: NVSS (PEKOA ARPT/SANTO, VU) observed 0600 UTC 17 February 2019
Temperature: 27.0°C (81°F)
Dewpoint: 26.0°C (79°F) [RH = 94%]
Pressure (altimeter): 29.35 inches Hg (994.0 mb)
Winds: from the NNE (30 degrees) at 24 MPH (21 knots; 10.8 m/s)
Visibility: 6 or more miles (10+ km)
Ceiling: 2000 feet AGL
Clouds: scattered clouds at 1800 feet AGL
broken clouds at 2000 feet AGL
overcast cloud deck at 11000 feet AGL
Weather: no significant weather observed at this time

METAR text: NVSS 170500Z 03021KT 9999 SCT018 BKN020 OVC110 28/27 Q0993 RMK NIL
Conditions at: NVSS (PEKOA ARPT/SANTO, VU) observed 0500 UTC 17 February 2019
Temperature: 28.0°C (82°F)
Dewpoint: 27.0°C (81°F) [RH = 94%]
Pressure (altimeter): 29.32 inches Hg (993.0 mb)
Winds: from the NNE (30 degrees) at 24 MPH (21 knots; 10.8 m/s)
Visibility: 6 or more miles (10+ km)
Ceiling: 2000 feet AGL
Clouds: scattered clouds at 1800 feet AGL
broken clouds at 2000 feet AGL
overcast cloud deck at 11000 feet AGL
Weather: no significant weather observed at this time

METAR text: NVSS 170400Z 03015KT 9999 FEW018 BKN020 OVC110 26/26 Q0994 RMK NIL
Conditions at: NVSS (PEKOA ARPT/SANTO, VU) observed 0400 UTC 17 February 2019
Temperature: 26.0°C (79°F)
Dewpoint: 26.0°C (79°F) [RH = 100%]
Pressure (altimeter): 29.35 inches Hg (994.0 mb)
Winds: from the NNE (30 degrees) at 17 MPH (15 knots; 7.7 m/s)
Visibility: 6 or more miles (10+ km)
Ceiling: 2000 feet AGL
Clouds: few clouds at 1800 feet AGL
broken clouds at 2000 feet AGL
overcast cloud deck at 11000 feet AGL
Weather: no significant weather observed at this time

METAR text: NVSS 170300Z 03016KT 9999 SHRA SCT018 BKN020 OVC110 26/26 Q0995 RMK NIL INTER 0200/0400 7000 SHRA SCT010 BKN018 OVC040
Conditions at: NVSS (PEKOA ARPT/SANTO, VU) observed 0300 UTC 17 February 2019
Temperature: 26.0°C (79°F)
Dewpoint: 26.0°C (79°F) [RH = 100%]
Pressure (altimeter): 29.38 inches Hg (995.0 mb)
Winds: from the NNE (30 degrees) at 18 MPH (16 knots; 8.2 m/s)
Visibility: 6 or more miles (10+ km)
Ceiling: 2000 feet AGL
Clouds: scattered clouds at 1800 feet AGL
broken clouds at 2000 feet AGL
overcast cloud deck at 11000 feet AGL
Weather: SHRA  (rain showers)

METAR text: NVSS 170200Z 02020KT 9999 -SHRA SCT018 BKN020 OVC110 26/26 Q0995 RMK NIL INTER 0200/0400 7000 SHRA SCT010 BKN018 OVC040
Conditions at: NVSS (PEKOA ARPT/SANTO, VU) observed 0200 UTC 17 February 2019
Temperature: 26.0°C (79°F)
Dewpoint: 26.0°C (79°F) [RH = 100%]
Pressure (altimeter): 29.38 inches Hg (995.0 mb)
Winds: from the NNE (20 degrees) at 23 MPH (20 knots; 10.3 m/s)
Visibility: 6 or more miles (10+ km)
Ceiling: 2000 feet AGL
Clouds: scattered clouds at 1800 feet AGL
broken clouds at 2000 feet AGL
overcast cloud deck at 11000 feet AGL
Weather: -SHRA  (light rain showers)

METAR text: NVSS 170100Z 03018KT 9999 FEW018 BKN020 OVC110 27/26 Q0995 RMK NIL
Conditions at: NVSS (PEKOA ARPT/SANTO, VU) observed 0100 UTC 17 February 2019
Temperature: 27.0°C (81°F)
Dewpoint: 26.0°C (79°F) [RH = 94%]
Pressure (altimeter): 29.38 inches Hg (995.0 mb)
Winds: from the NNE (30 degrees) at 21 MPH (18 knots; 9.3 m/s)
Visibility: 6 or more miles (10+ km)
Ceiling: 2000 feet AGL
Clouds: few clouds at 1800 feet AGL
broken clouds at 2000 feet AGL
overcast cloud deck at 11000 feet AGL
Weather: no significant weather observed at this time

METAR text: NVSS 170000Z 03020KT 9999 FEW018 BKN020 OVC110 27/26 Q0996 RMK NIL
Conditions at: NVSS (PEKOA ARPT/SANTO, VU) observed 0000 UTC 17 February 2019
Temperature: 27.0°C (81°F)
Dewpoint: 26.0°C (79°F) [RH = 94%]
Pressure (altimeter): 29.41 inches Hg (996.0 mb)
Winds: from the NNE (30 degrees) at 23 MPH (20 knots; 10.3 m/s)
Visibility: 6 or more miles (10+ km)
Ceiling: 2000 feet AGL
Clouds: few clouds at 1800 feet AGL
broken clouds at 2000 feet AGL
overcast cloud deck at 11000 feet AGL
Weather: no significant weather observed at this time

METAR text: NVSS 162300Z 03020KT 9999 BKN020 OVC110 28/26 Q0996 RMK NIL
Conditions at: NVSS (PEKOA ARPT/SANTO, VU) observed 2300 UTC 16 February 2019
Temperature: 28.0°C (82°F)
Dewpoint: 26.0°C (79°F) [RH = 89%]
Pressure (altimeter): 29.41 inches Hg (996.0 mb)
Winds: from the NNE (30 degrees) at 23 MPH (20 knots; 10.3 m/s)
Visibility: 6 or more miles (10+ km)
Ceiling: 2000 feet AGL
Clouds: broken clouds at 2000 feet AGL
overcast cloud deck at 11000 feet AGL
Weather: no significant weather observed at this time

METAR text: NVSS 162200Z 03019KT 9999 BKN020 OVC110 28/26 Q0996 RMK NIL
Conditions at: NVSS (PEKOA ARPT/SANTO, VU) observed 2200 UTC 16 February 2019
Temperature: 28.0°C (82°F)
Dewpoint: 26.0°C (79°F) [RH = 89%]
Pressure (altimeter): 29.41 inches Hg (996.0 mb)
Winds: from the NNE (30 degrees) at 22 MPH (19 knots; 9.8 m/s)
Visibility: 6 or more miles (10+ km)
Ceiling: 2000 feet AGL
Clouds: broken clouds at 2000 feet AGL
overcast cloud deck at 11000 feet AGL
Weather: no significant weather observed at this time

METAR text: NVSS 162100Z 02017KT 9999 BKN020 27/27 Q0995 RMK RESH
Conditions at: NVSS (PEKOA ARPT/SANTO, VU) observed 2100 UTC 16 February 2019
Temperature: 27.0°C (81°F)
Dewpoint: 27.0°C (81°F) [RH = 100%]
Pressure (altimeter): 29.38 inches Hg (995.0 mb)
Winds: from the NNE (20 degrees) at 20 MPH (17 knots; 8.7 m/s)
Visibility: 6 or more miles (10+ km)
Ceiling: 2000 feet AGL
Clouds: broken clouds at 2000 feet AGL
Weather: no significant weather observed at this time

METAR text: NVSS 162000Z 03017KT 9999 BKN020 OVC110 27/27 Q0995 RMK RESH
Conditions at: NVSS (PEKOA ARPT/SANTO, VU) observed 2000 UTC 16 February 2019
Temperature: 27.0°C (81°F)
Dewpoint: 27.0°C (81°F) [RH = 100%]
Pressure (altimeter): 29.38 inches Hg (995.0 mb)
Winds: from the NNE (30 degrees) at 20 MPH (17 knots; 8.7 m/s)
Visibility: 6 or more miles (10+ km)
Ceiling: 2000 feet AGL
Clouds: broken clouds at 2000 feet AGL
overcast cloud deck at 11000 feet AGL
Weather: no significant weather observed at this time

Forecast for: NVSS (PEKOA ARPT/SANTO, VU)
Text: TAF NVSS 180430Z 1806/1906 35015G25KT 9999 SCT020 BKN040
Forecast period: 0600 UTC 18 February 2019 to 0600 UTC 19 February 2019
Forecast type: FROM: standard forecast or significant change
Winds: from the N (350 degrees) at 17 MPH (15 knots; 7.7 m/s)
gusting to 29 MPH (25 knots; 12.9 m/s)
Visibility: 6 or more miles 10+ km)
Ceiling: 4000 feet AGL
Clouds: scattered clouds at 2000 feet AGL
broken clouds at 4000 feet AGL
Weather: no significant weather forecast for this period
Text: PROB40 INTER 1806/1812 8000 SHRA FEW012 BKN018
Forecast period: 0600 to 1200 UTC 18 February 2019
Forecast type: TEMPORARY: The following changes expected for less than half the time period
Visibility: 5 miles (8 km)
Ceiling: 1800 feet AGL
Clouds: few clouds at 1200 feet AGL
broken clouds at 1800 feet AGL
Weather: SHRA  (rain showers)